FZY weather

Oswego County Airport
Fulton, New York, United States

Public forecast

Using degrees Fahrenheit for public forecast. Weather courtesy of forecast.io.

Current aviation weather report (METAR) for Oswego County Airport

Retrieved 2019/11/22 14:02 UTC (52 seconds ago):

KFZY 221402Z AUTO 27018G28KT 10SM -RA SCT024 BKN033 OVC065 06/01 A2974 RMK AO2 PK WND 28028/1400 P0000 T00560006

Closest aviation forecast (TAF) to Oswego County Airport

Closest forecast is Syracuse Hancock International Airport, 18.9 nm (35.1 km) SE. Retrieved 2019/11/22 12:45 UTC (1 hour ago):

TAF KSYR 221141Z 2212/2312 25016KT 6SM -SHRA BR OVC025 TEMPO 2212/2216 5SM -SHRA OVC018 FM221700 28020G30KT 5SM -SHSNRA BR SCT022 BKN028 FM230100 29010G19KT 6SM -SHSN BKN025 BKN040 FM230800 26007KT P6SM FEW035 SCT060